sensor_id;sensor_type;location;lat;lon;timestamp;pressure;altitude;pressure_sealevel;temperature;humidity
76766;BME280;65707;52.362;6.588;2023-07-22T00:00:04;101374.34;;;14.55;72.64
76766;BME280;65707;52.362;6.588;2023-07-22T00:02:34;101376.38;;;14.53;72.67
76766;BME280;65707;52.362;6.588;2023-07-22T00:05:02;101374.03;;;14.50;73.59
76766;BME280;65707;52.362;6.588;2023-07-22T00:07:29;101372.72;;;14.46;73.33
76766;BME280;65707;52.362;6.588;2023-07-22T00:09:56;101373.22;;;14.50;73.54
76766;BME280;65707;52.362;6.588;2023-07-22T00:12:23;101378.13;;;14.46;73.73
76766;BME280;65707;52.362;6.588;2023-07-22T00:14:51;101370.31;;;14.51;73.66
76766;BME280;65707;52.362;6.588;2023-07-22T00:17:19;101370.03;;;14.46;74.05
76766;BME280;65707;52.362;6.588;2023-07-22T00:19:46;101370.22;;;14.45;74.13
76766;BME280;65707;52.362;6.588;2023-07-22T00:22:14;101375.91;;;14.50;74.55
76766;BME280;65707;52.362;6.588;2023-07-22T00:24:42;101370.75;;;14.40;74.61
76766;BME280;65707;52.362;6.588;2023-07-22T00:27:09;101374.19;;;14.34;74.81
76766;BME280;65707;52.362;6.588;2023-07-22T00:29:35;101368.09;;;14.32;75.21
76766;BME280;65707;52.362;6.588;2023-07-22T00:32:05;101370.09;;;14.38;75.05
76766;BME280;65707;52.362;6.588;2023-07-22T00:34:33;101372.78;;;14.38;75.49
76766;BME280;65707;52.362;6.588;2023-07-22T00:37:00;101366.41;;;14.31;75.14
76766;BME280;65707;52.362;6.588;2023-07-22T00:39:28;101369.16;;;14.23;75.70
76766;BME280;65707;52.362;6.588;2023-07-22T00:41:55;101364.44;;;14.25;75.98
76766;BME280;65707;52.362;6.588;2023-07-22T00:44:22;101362.41;;;14.19;76.03
76766;BME280;65707;52.362;6.588;2023-07-22T00:46:49;101368.19;;;14.16;76.62
76766;BME280;65707;52.362;6.588;2023-07-22T00:49:19;101368.00;;;14.18;76.44
76766;BME280;65707;52.362;6.588;2023-07-22T00:51:46;101361.25;;;14.22;76.46
76766;BME280;65707;52.362;6.588;2023-07-22T00:54:13;101362.91;;;14.23;76.57
76766;BME280;65707;52.362;6.588;2023-07-22T00:56:43;101358.97;;;14.33;76.12
76766;BME280;65707;52.362;6.588;2023-07-22T00:59:10;101367.91;;;14.03;76.99
76766;BME280;65707;52.362;6.588;2023-07-22T01:01:37;101361.56;;;14.19;76.82
76766;BME280;65707;52.362;6.588;2023-07-22T01:04:04;101365.13;;;14.19;76.23
76766;BME280;65707;52.362;6.588;2023-07-22T01:06:34;101363.75;;;14.23;76.28
76766;BME280;65707;52.362;6.588;2023-07-22T01:09:01;101352.66;;;14.18;76.70
76766;BME280;65707;52.362;6.588;2023-07-22T01:11:30;101356.53;;;14.16;76.97
76766;BME280;65707;52.362;6.588;2023-07-22T01:13:58;101360.13;;;14.08;76.89
76766;BME280;65707;52.362;6.588;2023-07-22T01:16:26;101365.22;;;14.03;77.75
76766;BME280;65707;52.362;6.588;2023-07-22T01:18:53;101367.63;;;13.98;77.83
76766;BME280;65707;52.362;6.588;2023-07-22T01:21:22;101365.53;;;14.08;77.50
76766;BME280;65707;52.362;6.588;2023-07-22T01:23:51;101366.91;;;14.04;77.78
76766;BME280;65707;52.362;6.588;2023-07-22T01:26:19;101359.53;;;13.98;78.52
76766;BME280;65707;52.362;6.588;2023-07-22T01:28:46;101352.75;;;14.02;78.10
76766;BME280;65707;52.362;6.588;2023-07-22T01:31:13;101349.38;;;14.00;78.38
76766;BME280;65707;52.362;6.588;2023-07-22T01:33:40;101356.06;;;14.12;77.77
76766;BME280;65707;52.362;6.588;2023-07-22T01:36:06;101343.75;;;14.10;77.56
76766;BME280;65707;52.362;6.588;2023-07-22T01:38:33;101336.88;;;14.07;77.83
76766;BME280;65707;52.362;6.588;2023-07-22T01:41:02;101342.28;;;14.07;78.18
76766;BME280;65707;52.362;6.588;2023-07-22T01:43:29;101343.94;;;14.08;78.03
76766;BME280;65707;52.362;6.588;2023-07-22T01:45:56;101342.63;;;14.04;77.80
76766;BME280;65707;52.362;6.588;2023-07-22T01:48:22;101338.00;;;14.13;77.54
76766;BME280;65707;52.362;6.588;2023-07-22T01:50:49;101337.50;;;14.09;77.52
76766;BME280;65707;52.362;6.588;2023-07-22T01:53:16;101341.56;;;14.13;77.46
76766;BME280;65707;52.362;6.588;2023-07-22T01:55:43;101315.03;;;13.94;77.64
76766;BME280;65707;52.362;6.588;2023-07-22T01:58:12;101341.84;;;14.18;77.34
76766;BME280;65707;52.362;6.588;2023-07-22T02:00:39;101338.97;;;14.20;77.34
76766;BME280;65707;52.362;6.588;2023-07-22T02:03:05;101344.31;;;14.05;78.04
76766;BME280;65707;52.362;6.588;2023-07-22T02:05:32;101340.53;;;14.14;77.79
76766;BME280;65707;52.362;6.588;2023-07-22T02:07:59;101337.28;;;14.19;76.99
76766;BME280;65707;52.362;6.588;2023-07-22T02:10:26;101345.56;;;14.17;77.49
76766;BME280;65707;52.362;6.588;2023-07-22T02:12:53;101324.75;;;14.03;78.19
76766;BME280;65707;52.362;6.588;2023-07-22T02:15:21;101345.31;;;14.04;78.29
76766;BME280;65707;52.362;6.588;2023-07-22T02:17:49;101341.66;;;13.97;78.95
76766;BME280;65707;52.362;6.588;2023-07-22T02:20:16;101336.06;;;13.98;78.71
76766;BME280;65707;52.362;6.588;2023-07-22T02:22:43;101335.88;;;14.00;78.78
76766;BME280;65707;52.362;6.588;2023-07-22T02:25:09;101337.28;;;13.96;79.16
76766;BME280;65707;52.362;6.588;2023-07-22T02:27:36;101340.66;;;13.98;79.21
76766;BME280;65707;52.362;6.588;2023-07-22T02:30:05;101339.13;;;13.95;79.20
76766;BME280;65707;52.362;6.588;2023-07-22T02:32:37;101337.88;;;14.06;78.74
76766;BME280;65707;52.362;6.588;2023-07-22T02:35:05;101336.63;;;13.94;78.84
76766;BME280;65707;52.362;6.588;2023-07-22T02:37:32;101343.63;;;14.03;79.39
76766;BME280;65707;52.362;6.588;2023-07-22T02:39:59;101341.97;;;14.02;78.91
76766;BME280;65707;52.362;6.588;2023-07-22T02:42:30;101347.00;;;14.05;78.78
76766;BME280;65707;52.362;6.588;2023-07-22T02:44:56;101335.25;;;13.98;79.68
76766;BME280;65707;52.362;6.588;2023-07-22T02:47:23;101337.09;;;13.97;79.43
76766;BME280;65707;52.362;6.588;2023-07-22T02:49:51;101339.63;;;13.99;79.54
76766;BME280;65707;52.362;6.588;2023-07-22T02:52:18;101334.91;;;14.01;79.67
76766;BME280;65707;52.362;6.588;2023-07-22T02:55:04;101338.22;;;14.03;79.67
76766;BME280;65707;52.362;6.588;2023-07-22T02:57:33;101344.34;;;13.97;80.10
76766;BME280;65707;52.362;6.588;2023-07-22T03:00:00;101334.53;;;14.04;79.80
76766;BME280;65707;52.362;6.588;2023-07-22T03:02:32;101343.16;;;13.99;80.15
76766;BME280;65707;52.362;6.588;2023-07-22T03:05:00;101340.78;;;13.96;79.92
76766;BME280;65707;52.362;6.588;2023-07-22T03:07:27;101341.34;;;13.92;80.29
76766;BME280;65707;52.362;6.588;2023-07-22T03:09:54;101340.97;;;13.95;80.50
76766;BME280;65707;52.362;6.588;2023-07-22T03:12:21;101339.31;;;13.94;80.59
76766;BME280;65707;52.362;6.588;2023-07-22T03:14:48;101346.38;;;13.95;80.65
76766;BME280;65707;52.362;6.588;2023-07-22T03:17:14;101346.69;;;14.00;80.35
76766;BME280;65707;52.362;6.588;2023-07-22T03:19:42;101349.25;;;13.93;80.93
76766;BME280;65707;52.362;6.588;2023-07-22T03:22:13;101348.91;;;13.96;80.34
76766;BME280;65707;52.362;6.588;2023-07-22T03:24:41;101348.38;;;14.01;80.36
76766;BME280;65707;52.362;6.588;2023-07-22T03:27:08;101349.53;;;14.07;80.20
76766;BME280;65707;52.362;6.588;2023-07-22T03:29:35;101350.69;;;14.12;79.82
76766;BME280;65707;52.362;6.588;2023-07-22T03:32:03;101341.97;;;14.02;79.73
76766;BME280;65707;52.362;6.588;2023-07-22T03:34:30;101350.31;;;14.15;79.85
76766;BME280;65707;52.362;6.588;2023-07-22T03:36:57;101343.88;;;14.16;79.31
76766;BME280;65707;52.362;6.588;2023-07-22T03:39:26;101339.78;;;14.20;79.79
76766;BME280;65707;52.362;6.588;2023-07-22T03:41:53;101346.78;;;14.15;80.16
76766;BME280;65707;52.362;6.588;2023-07-22T03:44:19;101349.53;;;14.07;79.96
76766;BME280;65707;52.362;6.588;2023-07-22T03:46:46;101347.25;;;14.18;80.20
76766;BME280;65707;52.362;6.588;2023-07-22T03:49:13;101351.00;;;14.09;80.66
76766;BME280;65707;52.362;6.588;2023-07-22T03:51:40;101352.56;;;14.03;80.81
76766;BME280;65707;52.362;6.588;2023-07-22T03:54:07;101353.69;;;14.09;80.57
76766;BME280;65707;52.362;6.588;2023-07-22T03:56:36;101352.75;;;14.02;80.97
76766;BME280;65707;52.362;6.588;2023-07-22T03:59:03;101349.75;;;13.97;80.63
76766;BME280;65707;52.362;6.588;2023-07-22T04:01:30;101357.44;;;14.08;80.78
76766;BME280;65707;52.362;6.588;2023-07-22T04:03:56;101360.44;;;14.13;80.48
76766;BME280;65707;52.362;6.588;2023-07-22T04:06:23;101355.19;;;14.20;80.17
76766;BME280;65707;52.362;6.588;2023-07-22T04:08:50;101347.41;;;14.25;79.79
76766;BME280;65707;52.362;6.588;2023-07-22T04:11:18;101357.50;;;14.23;79.73
76766;BME280;65707;52.362;6.588;2023-07-22T04:13:46;101355.28;;;14.34;79.87
76766;BME280;65707;52.362;6.588;2023-07-22T04:16:14;101357.00;;;14.27;79.94
76766;BME280;65707;52.362;6.588;2023-07-22T04:18:40;101350.16;;;14.39;79.92
76766;BME280;65707;52.362;6.588;2023-07-22T04:21:07;101354.25;;;14.35;80.10
76766;BME280;65707;52.362;6.588;2023-07-22T04:23:34;101357.53;;;14.45;79.39
76766;BME280;65707;52.362;6.588;2023-07-22T04:26:02;101351.00;;;14.40;79.69
76766;BME280;65707;52.362;6.588;2023-07-22T04:28:32;101351.25;;;14.53;79.59
76766;BME280;65707;52.362;6.588;2023-07-22T04:31:01;101348.06;;;14.49;79.64
76766;BME280;65707;52.362;6.588;2023-07-22T04:33:29;101343.50;;;14.50;79.26
76766;BME280;65707;52.362;6.588;2023-07-22T04:35:58;101336.34;;;14.57;79.06
76766;BME280;65707;52.362;6.588;2023-07-22T04:38:26;101345.59;;;14.62;78.76
76766;BME280;65707;52.362;6.588;2023-07-22T04:40:53;101336.75;;;14.68;79.05
76766;BME280;65707;52.362;6.588;2023-07-22T04:43:20;101338.34;;;14.77;79.09
76766;BME280;65707;52.362;6.588;2023-07-22T04:45:47;101340.03;;;14.93;78.26
76766;BME280;65707;52.362;6.588;2023-07-22T04:48:15;101333.16;;;14.90;78.37
76766;BME280;65707;52.362;6.588;2023-07-22T04:50:43;101336.13;;;15.10;77.54
76766;BME280;65707;52.362;6.588;2023-07-22T04:53:11;101335.88;;;15.19;77.03
76766;BME280;65707;52.362;6.588;2023-07-22T04:55:39;101347.03;;;15.02;77.41
76766;BME280;65707;52.362;6.588;2023-07-22T04:58:06;101341.91;;;14.92;78.02
76766;BME280;65707;52.362;6.588;2023-07-22T05:00:33;101346.31;;;15.08;77.74
76766;BME280;65707;52.362;6.588;2023-07-22T05:03:01;101336.91;;;15.18;77.56
76766;BME280;65707;52.362;6.588;2023-07-22T05:05:29;101333.91;;;15.13;77.38
76766;BME280;65707;52.362;6.588;2023-07-22T05:07:56;101340.47;;;15.19;77.35
76766;BME280;65707;52.362;6.588;2023-07-22T05:10:23;101345.00;;;15.18;77.77
76766;BME280;65707;52.362;6.588;2023-07-22T05:12:51;101334.31;;;15.25;77.49
76766;BME280;65707;52.362;6.588;2023-07-22T05:15:18;101331.22;;;15.28;77.52
76766;BME280;65707;52.362;6.588;2023-07-22T05:17:46;101331.78;;;15.38;76.89
76766;BME280;65707;52.362;6.588;2023-07-22T05:20:13;101330.22;;;15.43;76.97
76766;BME280;65707;52.362;6.588;2023-07-22T05:22:41;101329.44;;;15.49;76.69
76766;BME280;65707;52.362;6.588;2023-07-22T05:25:08;101340.06;;;15.66;76.80
76766;BME280;65707;52.362;6.588;2023-07-22T05:27:36;101332.66;;;15.74;75.93
76766;BME280;65707;52.362;6.588;2023-07-22T05:30:04;101338.47;;;15.71;76.70
76766;BME280;65707;52.362;6.588;2023-07-22T05:32:31;101341.53;;;15.83;75.94
76766;BME280;65707;52.362;6.588;2023-07-22T05:34:58;101335.25;;;15.82;75.89
76766;BME280;65707;52.362;6.588;2023-07-22T05:37:25;101346.09;;;15.82;75.95
76766;BME280;65707;52.362;6.588;2023-07-22T05:39:53;101342.75;;;15.80;76.26
76766;BME280;65707;52.362;6.588;2023-07-22T05:42:22;101346.38;;;15.87;75.98
76766;BME280;65707;52.362;6.588;2023-07-22T05:44:49;101343.84;;;15.86;76.45
76766;BME280;65707;52.362;6.588;2023-07-22T05:47:16;101345.09;;;15.83;76.25
76766;BME280;65707;52.362;6.588;2023-07-22T05:49:43;101348.38;;;16.00;76.32
76766;BME280;65707;52.362;6.588;2023-07-22T05:52:10;101351.75;;;16.02;75.94
76766;BME280;65707;52.362;6.588;2023-07-22T05:54:37;101348.66;;;16.05;76.14
76766;BME280;65707;52.362;6.588;2023-07-22T05:57:06;101339.28;;;16.07;76.16
76766;BME280;65707;52.362;6.588;2023-07-22T05:59:33;101340.41;;;16.13;76.03
76766;BME280;65707;52.362;6.588;2023-07-22T06:02:01;101333.13;;;16.13;76.03
76766;BME280;65707;52.362;6.588;2023-07-22T06:04:28;101337.97;;;16.39;75.36
76766;BME280;65707;52.362;6.588;2023-07-22T06:06:55;101342.63;;;16.45;75.56
76766;BME280;65707;52.362;6.588;2023-07-22T06:09:22;101340.84;;;16.52;75.10
76766;BME280;65707;52.362;6.588;2023-07-22T06:11:48;101338.63;;;16.62;75.24
76766;BME280;65707;52.362;6.588;2023-07-22T06:14:16;101332.91;;;16.78;74.18
76766;BME280;65707;52.362;6.588;2023-07-22T06:16:43;101330.72;;;16.88;73.83
76766;BME280;65707;52.362;6.588;2023-07-22T06:19:10;101331.97;;;16.92;73.71
76766;BME280;65707;52.362;6.588;2023-07-22T06:21:37;101332.63;;;16.94;73.88
76766;BME280;65707;52.362;6.588;2023-07-22T06:24:04;101331.28;;;17.11;73.76
76766;BME280;65707;52.362;6.588;2023-07-22T06:26:31;101327.25;;;17.35;72.34
76766;BME280;65707;52.362;6.588;2023-07-22T06:28:58;101331.16;;;17.26;72.97
76766;BME280;65707;52.362;6.588;2023-07-22T06:31:26;101335.44;;;17.41;72.93
76766;BME280;65707;52.362;6.588;2023-07-22T06:33:56;101337.56;;;17.46;72.66
76766;BME280;65707;52.362;6.588;2023-07-22T06:36:23;101330.31;;;17.53;72.25
76766;BME280;65707;52.362;6.588;2023-07-22T06:38:49;101343.03;;;17.52;72.46
76766;BME280;65707;52.362;6.588;2023-07-22T06:41:16;101342.03;;;17.66;72.57
76766;BME280;65707;52.362;6.588;2023-07-22T06:43:44;101330.84;;;17.82;71.59
76766;BME280;65707;52.362;6.588;2023-07-22T06:46:11;101336.03;;;17.77;71.87
76766;BME280;65707;52.362;6.588;2023-07-22T06:48:39;101332.13;;;17.93;72.09
76766;BME280;65707;52.362;6.588;2023-07-22T06:51:07;101331.16;;;18.26;71.70
76766;BME280;65707;52.362;6.588;2023-07-22T06:53:33;101327.69;;;18.52;70.27
76766;BME280;65707;52.362;6.588;2023-07-22T06:56:00;101321.19;;;18.73;69.78
76766;BME280;65707;52.362;6.588;2023-07-22T06:58:27;101319.53;;;18.85;68.68
76766;BME280;65707;52.362;6.588;2023-07-22T07:00:54;101332.69;;;18.55;70.18
76766;BME280;65707;52.362;6.588;2023-07-22T07:03:21;101326.84;;;18.65;69.92
76766;BME280;65707;52.362;6.588;2023-07-22T07:05:53;101333.75;;;18.61;69.78
76766;BME280;65707;52.362;6.588;2023-07-22T07:08:20;101322.84;;;18.47;69.77
76766;BME280;65707;52.362;6.588;2023-07-22T07:10:48;101325.16;;;18.57;69.50
76766;BME280;65707;52.362;6.588;2023-07-22T07:13:15;101323.47;;;18.49;70.26
76766;BME280;65707;52.362;6.588;2023-07-22T07:15:46;101323.47;;;18.49;70.67
76766;BME280;65707;52.362;6.588;2023-07-22T07:18:14;101324.56;;;18.55;71.02
76766;BME280;65707;52.362;6.588;2023-07-22T07:20:41;101325.78;;;18.85;69.48
76766;BME280;65707;52.362;6.588;2023-07-22T07:23:09;101317.81;;;18.84;69.68
76766;BME280;65707;52.362;6.588;2023-07-22T07:25:36;101320.53;;;18.97;69.07
76766;BME280;65707;52.362;6.588;2023-07-22T07:28:03;101315.09;;;18.97;67.82
76766;BME280;65707;52.362;6.588;2023-07-22T07:30:30;101318.03;;;19.02;68.74
76766;BME280;65707;52.362;6.588;2023-07-22T07:32:57;101311.53;;;19.03;69.21
76766;BME280;65707;52.362;6.588;2023-07-22T07:35:24;101309.22;;;19.13;68.43
76766;BME280;65707;52.362;6.588;2023-07-22T07:37:51;101314.22;;;19.16;68.41
76766;BME280;65707;52.362;6.588;2023-07-22T07:40:19;101306.00;;;19.48;68.01
76766;BME280;65707;52.362;6.588;2023-07-22T07:42:46;101312.03;;;19.63;66.38
76766;BME280;65707;52.362;6.588;2023-07-22T07:45:13;101302.53;;;19.79;63.97
76766;BME280;65707;52.362;6.588;2023-07-22T07:47:40;101302.13;;;19.75;63.32
76766;BME280;65707;52.362;6.588;2023-07-22T07:50:07;101308.31;;;19.89;63.21
76766;BME280;65707;52.362;6.588;2023-07-22T07:52:35;101311.44;;;19.92;62.29
76766;BME280;65707;52.362;6.588;2023-07-22T07:55:04;101302.81;;;19.58;62.79
76766;BME280;65707;52.362;6.588;2023-07-22T07:57:33;101306.88;;;19.86;62.88
76766;BME280;65707;52.362;6.588;2023-07-22T08:00:00;101300.16;;;19.89;61.90
76766;BME280;65707;52.362;6.588;2023-07-22T08:02:26;101296.56;;;19.95;62.25
76766;BME280;65707;52.362;6.588;2023-07-22T08:04:53;101290.78;;;20.16;61.89
76766;BME280;65707;52.362;6.588;2023-07-22T08:07:20;101291.75;;;20.28;61.26
76766;BME280;65707;52.362;6.588;2023-07-22T08:09:47;101282.22;;;20.44;59.86
76766;BME280;65707;52.362;6.588;2023-07-22T08:12:15;101284.13;;;20.61;59.62
76766;BME280;65707;52.362;6.588;2023-07-22T08:14:43;101277.91;;;20.79;58.53
76766;BME280;65707;52.362;6.588;2023-07-22T08:17:10;101271.94;;;20.88;57.78
76766;BME280;65707;52.362;6.588;2023-07-22T08:19:37;101273.56;;;20.96;58.33
76766;BME280;65707;52.362;6.588;2023-07-22T08:22:04;101282.81;;;21.13;58.52
76766;BME280;65707;52.362;6.588;2023-07-22T08:24:31;101272.88;;;21.36;57.61
76766;BME280;65707;52.362;6.588;2023-07-22T08:26:58;101283.44;;;21.33;57.82
76766;BME280;65707;52.362;6.588;2023-07-22T08:29:25;101269.84;;;21.63;55.69
76766;BME280;65707;52.362;6.588;2023-07-22T08:31:53;101279.97;;;21.92;55.77
76766;BME280;65707;52.362;6.588;2023-07-22T08:34:20;101273.16;;;21.83;54.81
76766;BME280;65707;52.362;6.588;2023-07-22T08:36:47;101257.25;;;21.80;53.88
76766;BME280;65707;52.362;6.588;2023-07-22T08:39:14;101265.44;;;21.80;54.03
76766;BME280;65707;52.362;6.588;2023-07-22T08:41:43;101256.97;;;22.11;52.54
76766;BME280;65707;52.362;6.588;2023-07-22T08:44:18;101243.75;;;22.49;50.91
76766;BME280;65707;52.362;6.588;2023-07-22T08:46:47;101256.03;;;22.17;51.89
76766;BME280;65707;52.362;6.588;2023-07-22T08:49:22;101247.59;;;22.07;50.76
76766;BME280;65707;52.362;6.588;2023-07-22T08:51:49;101249.84;;;22.10;50.61
76766;BME280;65707;52.362;6.588;2023-07-22T08:54:16;101238.31;;;22.08;49.20
76766;BME280;65707;52.362;6.588;2023-07-22T08:56:43;101233.75;;;22.43;48.99
76766;BME280;65707;52.362;6.588;2023-07-22T08:59:11;101244.00;;;22.06;49.90
76766;BME280;65707;52.362;6.588;2023-07-22T09:01:40;101251.44;;;21.88;50.56
76766;BME280;65707;52.362;6.588;2023-07-22T09:04:07;101241.69;;;21.92;50.28
76766;BME280;65707;52.362;6.588;2023-07-22T09:06:36;101247.13;;;21.62;49.93
76766;BME280;65707;52.362;6.588;2023-07-22T09:09:03;101255.34;;;21.62;51.04
76766;BME280;65707;52.362;6.588;2023-07-22T09:11:33;101250.88;;;21.68;51.05
76766;BME280;65707;52.362;6.588;2023-07-22T09:14:02;101243.19;;;21.76;50.67
76766;BME280;65707;52.362;6.588;2023-07-22T09:16:30;101250.03;;;21.97;51.20
76766;BME280;65707;52.362;6.588;2023-07-22T09:18:57;101239.72;;;21.99;50.09
76766;BME280;65707;52.362;6.588;2023-07-22T09:21:25;101247.72;;;21.82;49.92
76766;BME280;65707;52.362;6.588;2023-07-22T09:23:54;101242.69;;;21.97;49.70
76766;BME280;65707;52.362;6.588;2023-07-22T09:26:21;101239.75;;;22.10;48.79
76766;BME280;65707;52.362;6.588;2023-07-22T09:28:49;101238.81;;;22.28;50.30
76766;BME280;65707;52.362;6.588;2023-07-22T09:31:18;101222.13;;;22.82;48.06
76766;BME280;65707;52.362;6.588;2023-07-22T09:33:46;101227.69;;;23.10;47.55
76766;BME280;65707;52.362;6.588;2023-07-22T09:36:13;101214.09;;;23.15;46.23
76766;BME280;65707;52.362;6.588;2023-07-22T09:38:40;101218.38;;;23.11;46.25
76766;BME280;65707;52.362;6.588;2023-07-22T09:41:08;101215.75;;;23.05;47.23
76766;BME280;65707;52.362;6.588;2023-07-22T09:43:38;101215.59;;;22.71;47.46
76766;BME280;65707;52.362;6.588;2023-07-22T09:46:06;101218.06;;;22.96;47.69
76766;BME280;65707;52.362;6.588;2023-07-22T09:48:42;101209.84;;;22.84;48.13
76766;BME280;65707;52.362;6.588;2023-07-22T09:51:13;101216.38;;;23.30;48.13
76766;BME280;65707;52.362;6.588;2023-07-22T09:53:45;101183.09;;;24.10;44.81
76766;BME280;65707;52.362;6.588;2023-07-22T09:56:14;101179.03;;;23.85;43.14
76766;BME280;65707;52.362;6.588;2023-07-22T09:58:42;101191.03;;;23.95;44.26
76766;BME280;65707;52.362;6.588;2023-07-22T10:01:15;101177.13;;;23.97;43.98
76766;BME280;65707;52.362;6.588;2023-07-22T10:03:46;101186.00;;;24.04;43.51
76766;BME280;65707;52.362;6.588;2023-07-22T10:06:16;101196.19;;;23.92;44.15
76766;BME280;65707;52.362;6.588;2023-07-22T10:08:43;101192.22;;;23.99;45.51
76766;BME280;65707;52.362;6.588;2023-07-22T10:11:14;101184.75;;;24.11;45.08
76766;BME280;65707;52.362;6.588;2023-07-22T10:13:42;101177.22;;;23.90;43.90
76766;BME280;65707;52.362;6.588;2023-07-22T10:16:09;101186.66;;;23.66;45.74
76766;BME280;65707;52.362;6.588;2023-07-22T10:18:37;101194.69;;;23.84;45.75
76766;BME280;65707;52.362;6.588;2023-07-22T10:21:07;101217.91;;;23.26;47.23
76766;BME280;65707;52.362;6.588;2023-07-22T10:23:36;101219.34;;;22.47;48.78
76766;BME280;65707;52.362;6.588;2023-07-22T10:26:05;101217.59;;;22.53;48.24
76766;BME280;65707;52.362;6.588;2023-07-22T10:28:33;101214.72;;;22.48;48.49
76766;BME280;65707;52.362;6.588;2023-07-22T10:31:00;101207.84;;;22.57;49.05
76766;BME280;65707;52.362;6.588;2023-07-22T10:33:28;101205.56;;;22.65;48.95
76766;BME280;65707;52.362;6.588;2023-07-22T10:36:05;101210.09;;;22.37;49.50
76766;BME280;65707;52.362;6.588;2023-07-22T10:38:34;101197.81;;;22.39;46.73
76766;BME280;65707;52.362;6.588;2023-07-22T10:41:04;101216.94;;;22.28;48.56
76766;BME280;65707;52.362;6.588;2023-07-22T10:43:40;101211.38;;;22.23;48.83
76766;BME280;65707;52.362;6.588;2023-07-22T10:46:10;101217.03;;;22.10;48.96
76766;BME280;65707;52.362;6.588;2023-07-22T10:48:38;101220.53;;;21.87;49.90
76766;BME280;65707;52.362;6.588;2023-07-22T10:51:09;101220.53;;;21.76;49.68
76766;BME280;65707;52.362;6.588;2023-07-22T10:53:40;101215.31;;;21.86;49.02
76766;BME280;65707;52.362;6.588;2023-07-22T10:56:14;101215.78;;;21.83;50.43
76766;BME280;65707;52.362;6.588;2023-07-22T10:59:00;101228.34;;;21.54;51.91
76766;BME280;65707;52.362;6.588;2023-07-22T11:01:34;101230.38;;;21.59;50.89
76766;BME280;65707;52.362;6.588;2023-07-22T11:04:04;101226.38;;;21.43;51.12
76766;BME280;65707;52.362;6.588;2023-07-22T11:06:33;101220.28;;;21.29;51.33
76766;BME280;65707;52.362;6.588;2023-07-22T11:09:00;101212.16;;;21.41;51.60
76766;BME280;65707;52.362;6.588;2023-07-22T11:11:39;101208.63;;;21.52;51.52
76766;BME280;65707;52.362;6.588;2023-07-22T11:14:20;101210.69;;;21.68;51.40
76766;BME280;65707;52.362;6.588;2023-07-22T11:16:48;101207.88;;;21.45;51.43
76766;BME280;65707;52.362;6.588;2023-07-22T11:19:16;101214.03;;;21.40;52.08
76766;BME280;65707;52.362;6.588;2023-07-22T11:21:45;101216.06;;;21.75;52.22
76766;BME280;65707;52.362;6.588;2023-07-22T11:24:13;101208.66;;;21.82;51.12
76766;BME280;65707;52.362;6.588;2023-07-22T11:26:40;101206.88;;;21.76;51.33
76766;BME280;65707;52.362;6.588;2023-07-22T11:29:09;101201.78;;;21.91;51.24
76766;BME280;65707;52.362;6.588;2023-07-22T11:31:38;101195.25;;;21.92;50.05
76766;BME280;65707;52.362;6.588;2023-07-22T11:34:08;101192.03;;;21.95;50.50
76766;BME280;65707;52.362;6.588;2023-07-22T11:36:35;101189.00;;;22.14;49.30
76766;BME280;65707;52.362;6.588;2023-07-22T11:39:03;101172.47;;;22.32;49.72
76766;BME280;65707;52.362;6.588;2023-07-22T11:41:31;101163.34;;;22.27;48.44
76766;BME280;65707;52.362;6.588;2023-07-22T11:43:59;101171.03;;;22.18;49.04
76766;BME280;65707;52.362;6.588;2023-07-22T11:46:27;101186.00;;;21.93;49.28
76766;BME280;65707;52.362;6.588;2023-07-22T11:48:56;101175.91;;;22.05;49.96
76766;BME280;65707;52.362;6.588;2023-07-22T11:51:24;101180.19;;;22.01;49.39
76766;BME280;65707;52.362;6.588;2023-07-22T11:53:52;101171.75;;;22.02;49.55
76766;BME280;65707;52.362;6.588;2023-07-22T11:56:21;101170.88;;;21.90;50.22
76766;BME280;65707;52.362;6.588;2023-07-22T11:58:50;101174.81;;;22.06;50.04
76766;BME280;65707;52.362;6.588;2023-07-22T12:01:17;101183.25;;;21.93;50.33
76766;BME280;65707;52.362;6.588;2023-07-22T12:03:44;101170.78;;;21.97;50.66
76766;BME280;65707;52.362;6.588;2023-07-22T12:06:13;101180.28;;;21.94;50.32
76766;BME280;65707;52.362;6.588;2023-07-22T12:08:44;101177.09;;;21.68;50.94
76766;BME280;65707;52.362;6.588;2023-07-22T12:11:16;101183.38;;;21.68;51.35
76766;BME280;65707;52.362;6.588;2023-07-22T12:13:44;101184.16;;;21.57;51.45
76766;BME280;65707;52.362;6.588;2023-07-22T12:16:12;101179.94;;;21.61;50.66
76766;BME280;65707;52.362;6.588;2023-07-22T12:18:43;101179.84;;;21.68;51.64
76766;BME280;65707;52.362;6.588;2023-07-22T12:21:10;101195.16;;;21.69;51.27
76766;BME280;65707;52.362;6.588;2023-07-22T12:23:39;101175.28;;;21.62;50.09
76766;BME280;65707;52.362;6.588;2023-07-22T12:26:07;101180.47;;;21.52;50.89
76766;BME280;65707;52.362;6.588;2023-07-22T12:28:34;101178.53;;;21.40;50.52
76766;BME280;65707;52.362;6.588;2023-07-22T12:31:01;101203.72;;;21.42;50.47
76766;BME280;65707;52.362;6.588;2023-07-22T12:33:27;101193.69;;;21.36;51.26
76766;BME280;65707;52.362;6.588;2023-07-22T12:35:56;101221.34;;;21.10;52.74
76766;BME280;65707;52.362;6.588;2023-07-22T12:38:24;101252.81;;;20.70;59.37
76766;BME280;65707;52.362;6.588;2023-07-22T12:40:51;101272.66;;;19.97;64.30
76766;BME280;65707;52.362;6.588;2023-07-22T12:43:18;101260.34;;;19.50;66.63
76766;BME280;65707;52.362;6.588;2023-07-22T12:45:45;101255.78;;;19.38;67.73
76766;BME280;65707;52.362;6.588;2023-07-22T12:48:12;101252.94;;;19.13;68.18
76766;BME280;65707;52.362;6.588;2023-07-22T12:50:38;101253.31;;;19.17;70.30
76766;BME280;65707;52.362;6.588;2023-07-22T12:53:05;101246.59;;;19.26;71.63